createdAt,value
2018-04-23T00:00:32.380Z,15.30
2018-04-23T00:02:59.851Z,17.10
2018-04-23T00:05:27.374Z,14.33
2018-04-23T00:07:54.838Z,15.17
2018-04-23T00:10:22.300Z,15.13
2018-04-23T00:12:49.765Z,16.23
2018-04-23T00:15:17.247Z,14.60
2018-04-23T00:17:45.486Z,15.10
2018-04-23T00:20:12.980Z,15.57
2018-04-23T00:22:40.452Z,15.00
2018-04-23T00:25:07.904Z,15.53
2018-04-23T00:27:35.449Z,15.13
2018-04-23T00:30:02.917Z,15.47
2018-04-23T00:32:30.398Z,14.77
2018-04-23T00:34:57.981Z,14.87
2018-04-23T00:37:25.463Z,15.27
2018-04-23T00:39:52.946Z,15.37
2018-04-23T00:42:20.424Z,15.47
2018-04-23T00:44:47.920Z,15.60
2018-04-23T00:47:15.392Z,15.30
2018-04-23T00:49:42.852Z,14.77
2018-04-23T00:52:10.316Z,14.93
2018-04-23T00:54:37.782Z,15.20
2018-04-23T00:57:06.032Z,15.10
2018-04-23T00:59:33.500Z,16.07
2018-04-23T01:02:00.997Z,14.63
2018-04-23T01:04:28.482Z,15.03
2018-04-23T01:06:55.964Z,15.60
2018-04-23T01:09:23.477Z,15.87
2018-04-23T01:11:50.949Z,15.97
2018-04-23T01:14:18.418Z,14.60
2018-04-23T01:16:45.890Z,14.83
2018-04-23T01:19:13.354Z,15.10
2018-04-23T01:21:40.911Z,14.20
2018-04-23T01:24:08.373Z,15.03
2018-04-23T01:26:35.833Z,15.33
2018-04-23T01:29:03.355Z,15.13
2018-04-23T01:31:30.832Z,15.33
2018-04-23T01:33:58.328Z,16.87
2018-04-23T01:36:25.810Z,15.57
2018-04-23T01:38:53.312Z,15.10
2018-04-23T01:41:20.779Z,15.53
2018-04-23T01:43:48.289Z,14.97
2018-04-23T01:46:15.758Z,17.10
2018-04-23T01:48:43.221Z,16.67
2018-04-23T01:51:10.716Z,15.87
2018-04-23T01:53:38.181Z,14.87
2018-04-23T01:56:05.646Z,15.90
2018-04-23T01:58:33.878Z,15.57
2018-04-23T02:01:01.344Z,16.10
2018-04-23T02:03:28.857Z,15.60
2018-04-23T02:05:56.340Z,14.20
2018-04-23T02:08:23.817Z,14.90
2018-04-23T02:10:51.277Z,14.03
2018-04-23T02:13:18.792Z,16.80
2018-04-23T02:15:46.308Z,13.53
2018-04-23T02:18:14.576Z,13.77
2018-04-23T02:20:42.060Z,14.00
2018-04-23T02:23:09.524Z,15.20
2018-04-23T02:25:37.020Z,13.70
2018-04-23T02:28:04.495Z,17.77
2018-04-23T02:30:31.973Z,15.20
2018-04-23T02:32:59.483Z,15.00
2018-04-23T02:35:27.055Z,15.30
2018-04-23T02:37:55.050Z,15.70
2018-04-23T02:40:22.520Z,14.97
2018-04-23T02:42:50.029Z,14.40
2018-04-23T02:45:17.516Z,14.23
2018-04-23T02:47:44.981Z,14.30
2018-04-23T02:50:12.443Z,13.57
2018-04-23T02:52:39.911Z,13.90
2018-04-23T02:55:08.144Z,13.00
2018-04-23T02:57:35.616Z,13.10
2018-04-23T03:00:03.090Z,14.00
2018-04-23T03:02:31.322Z,15.23
2018-04-23T03:04:58.836Z,15.00
2018-04-23T03:07:26.335Z,16.30
2018-04-23T03:09:53.800Z,14.00
2018-04-23T03:12:21.265Z,14.57
2018-04-23T03:14:48.769Z,13.43
2018-04-23T03:17:16.305Z,14.50
2018-04-23T03:19:43.769Z,12.77
2018-04-23T03:22:11.343Z,12.73
2018-04-23T03:24:38.809Z,13.30
2018-04-23T03:27:06.279Z,13.17
2018-04-23T03:29:33.745Z,12.63
2018-04-23T03:32:01.271Z,13.17
2018-04-23T03:34:28.735Z,13.37
2018-04-23T03:36:56.238Z,13.80
2018-04-23T03:39:23.740Z,14.73
2018-04-23T03:41:51.200Z,14.43
2018-04-23T03:44:18.660Z,15.53
2018-04-23T03:46:46.900Z,14.87
2018-04-23T03:49:14.406Z,14.47
2018-04-23T03:51:41.980Z,15.10
2018-04-23T03:54:09.443Z,14.47
2018-04-23T03:56:37.746Z,14.77
2018-04-23T03:59:05.212Z,13.83
2018-04-23T04:01:32.724Z,12.53
2018-04-23T04:04:00.224Z,13.50
2018-04-23T04:06:28.455Z,12.40
2018-04-23T04:08:56.000Z,13.47
2018-04-23T04:11:23.473Z,16.30
2018-04-23T04:14:02.770Z,14.83
2018-04-23T04:16:42.156Z,12.87
2018-04-23T04:19:09.617Z,12.00
2018-04-23T04:21:37.081Z,11.60
2018-04-23T04:24:04.541Z,10.63
2018-04-23T04:26:32.001Z,12.47
2018-04-23T04:28:59.471Z,13.33
2018-04-23T04:31:27.798Z,13.53
2018-04-23T04:33:56.024Z,14.17
2018-04-23T04:36:23.489Z,13.23
2018-04-23T04:38:50.957Z,14.07
2018-04-23T04:41:18.473Z,13.90
2018-04-23T04:43:45.937Z,14.93
2018-04-23T04:46:13.396Z,15.53
2018-04-23T04:48:41.644Z,14.37
2018-04-23T04:51:09.149Z,13.03
2018-04-23T04:53:36.740Z,11.43
2018-04-23T04:56:04.229Z,13.07
2018-04-23T04:58:31.770Z,12.63
2018-04-23T05:00:59.346Z,13.97
2018-04-23T05:03:26.804Z,13.27
2018-04-23T05:05:54.394Z,12.60
2018-04-23T05:08:21.832Z,12.40
2018-04-23T05:10:49.569Z,14.70
2018-04-23T05:13:17.032Z,12.27
2018-04-23T05:15:45.281Z,12.47
2018-04-23T05:18:12.782Z,12.23
2018-04-23T05:20:40.270Z,11.70
2018-04-23T05:23:07.736Z,10.97
2018-04-23T05:25:35.198Z,12.93
2018-04-23T05:28:02.709Z,10.47
2018-04-23T05:30:30.186Z,10.90
2018-04-23T05:32:57.648Z,10.50
2018-04-23T05:35:25.874Z,12.10
2018-04-23T05:37:53.340Z,11.50
2018-04-23T05:40:21.569Z,11.83
2018-04-23T05:42:49.060Z,12.10
2018-04-23T05:45:16.533Z,11.87
2018-04-23T05:47:44.006Z,13.50
2018-04-23T05:50:11.563Z,11.97
2018-04-23T05:52:39.105Z,9.53
2018-04-23T05:55:06.567Z,12.83
2018-04-23T05:57:34.804Z,11.90
2018-04-23T06:00:02.282Z,10.60
2018-04-23T06:02:29.782Z,10.73
2018-04-23T06:04:57.245Z,10.53
2018-04-23T06:07:24.756Z,10.13
2018-04-23T06:09:52.221Z,9.73
2018-04-23T06:12:19.722Z,10.07
2018-04-23T06:14:47.192Z,13.10
2018-04-23T06:17:14.650Z,9.23
2018-04-23T06:19:42.153Z,11.37
2018-04-23T06:22:09.589Z,9.33
2018-04-23T06:24:37.832Z,11.97
2018-04-23T06:27:05.321Z,13.87
2018-04-23T06:29:32.790Z,11.20
2018-04-23T06:32:00.281Z,14.80
2018-04-23T06:34:27.752Z,13.80
2018-04-23T06:36:55.220Z,11.33
2018-04-23T06:39:22.692Z,11.40
2018-04-23T06:41:50.153Z,16.17
2018-04-23T06:44:18.380Z,15.30
2018-04-23T06:46:45.840Z,13.43
2018-04-23T06:49:14.096Z,11.40
2018-04-23T06:51:41.577Z,12.33
2018-04-23T06:54:09.050Z,13.90
2018-04-23T06:56:36.513Z,12.50
2018-04-23T06:59:03.992Z,11.17
2018-04-23T07:01:32.218Z,15.27
2018-04-23T07:03:59.676Z,12.80
2018-04-23T07:06:27.146Z,15.77
2018-04-23T07:08:54.704Z,12.70
2018-04-23T07:11:22.175Z,13.47
2018-04-23T07:13:49.674Z,10.67
2018-04-23T07:16:17.142Z,10.60
2018-04-23T07:18:44.607Z,9.50
2018-04-23T07:21:12.125Z,11.67
2018-04-23T07:23:39.584Z,10.63
2018-04-23T07:26:07.049Z,11.27
2018-04-23T07:28:34.560Z,14.70
2018-04-23T07:31:02.042Z,11.67
2018-04-23T07:33:29.511Z,14.03
2018-04-23T07:35:56.974Z,9.65
2018-04-23T07:38:25.224Z,10.20
2018-04-23T07:40:52.708Z,12.30
2018-04-23T07:43:20.188Z,7.97
2018-04-23T07:45:48.033Z,6.65
2018-04-23T07:48:16.277Z,11.12
2018-04-23T07:50:43.732Z,7.95
2018-04-23T07:53:11.252Z,10.10
2018-04-23T07:55:38.713Z,10.13
2018-04-23T07:58:06.168Z,12.05
2018-04-23T08:00:34.396Z,11.80
2018-04-23T08:03:01.890Z,12.35
2018-04-23T08:05:29.365Z,10.02
2018-04-23T08:07:56.845Z,11.57
2018-04-23T08:10:24.324Z,17.50
2018-04-23T08:12:51.792Z,11.12
2018-04-23T08:15:19.295Z,10.10
2018-04-23T08:17:46.790Z,10.38
2018-04-23T08:20:14.358Z,11.30
2018-04-23T08:22:41.853Z,12.02
2018-04-23T08:25:09.421Z,8.85
2018-04-23T08:27:36.881Z,12.93
2018-04-23T08:30:04.342Z,11.25
2018-04-23T08:32:31.812Z,14.82
2018-04-23T08:35:00.044Z,13.55
2018-04-23T08:37:27.527Z,14.82
2018-04-23T08:39:55.028Z,22.62
2018-04-23T08:42:22.516Z,20.20
2018-04-23T08:44:49.995Z,21.53
2018-04-23T08:47:17.454Z,19.27
2018-04-23T08:49:44.966Z,15.40
2018-04-23T08:52:12.421Z,15.23
2018-04-23T08:54:40.645Z,14.07
2018-04-23T08:57:08.106Z,14.47
2018-04-23T08:59:35.566Z,14.23
2018-04-23T09:02:03.793Z,15.57
2018-04-23T09:04:31.256Z,12.73
2018-04-23T09:06:59.512Z,17.83
2018-04-23T09:09:26.977Z,15.23
2018-04-23T09:11:54.432Z,17.00
2018-04-23T09:14:21.888Z,14.23
2018-04-23T09:16:50.860Z,16.90
2018-04-23T09:19:18.364Z,19.03
2018-04-23T09:21:45.825Z,17.80
2018-04-23T09:24:13.378Z,18.27
2018-04-23T09:26:41.628Z,23.97
2018-04-23T09:29:09.085Z,18.63
2018-04-23T09:31:36.614Z,17.73
2018-04-23T09:34:04.177Z,18.30
2018-04-23T09:36:31.632Z,15.53
2018-04-23T09:38:59.120Z,17.60
2018-04-23T09:41:26.569Z,17.13
2018-04-23T09:43:54.790Z,17.50
2018-04-23T09:46:22.255Z,17.57
2018-04-23T09:48:50.485Z,16.10
2018-04-23T09:51:18.490Z,20.63
2018-04-23T09:53:46.002Z,14.30
2018-04-23T09:56:13.461Z,15.53
2018-04-23T09:58:41.012Z,19.33
2018-04-23T10:01:14.057Z,17.23
2018-04-23T10:03:41.529Z,17.23
2018-04-23T10:06:09.062Z,16.13
2018-04-23T10:08:36.623Z,16.47
2018-04-23T10:11:04.109Z,16.50
2018-04-23T10:13:31.581Z,17.63
2018-04-23T10:15:59.044Z,18.17
2018-04-23T10:18:26.507Z,19.10
2018-04-23T10:20:53.966Z,22.53
2018-04-23T10:23:22.232Z,21.67
2018-04-23T10:25:49.703Z,16.63
2018-04-23T10:28:17.185Z,19.67
2018-04-23T10:30:44.646Z,21.17
2018-04-23T10:33:12.106Z,20.47
2018-04-23T10:35:39.629Z,18.57
2018-04-23T10:38:07.098Z,22.47
2018-04-23T10:40:34.557Z,22.27
2018-04-23T10:43:02.019Z,18.17
2018-04-23T10:45:30.279Z,15.47
2018-04-23T10:47:57.740Z,21.33
2018-04-23T10:50:25.237Z,18.13
2018-04-23T10:52:52.741Z,17.93
2018-04-23T10:55:20.313Z,14.97
2018-04-23T10:57:47.778Z,15.73
2018-04-23T11:00:15.281Z,16.20
2018-04-23T11:02:42.849Z,14.70
2018-04-23T11:05:10.384Z,18.13
2018-04-23T11:07:38.612Z,12.00
2018-04-23T11:10:06.073Z,16.07
2018-04-23T11:12:34.296Z,10.80
2018-04-23T11:15:01.848Z,14.70
2018-04-23T11:17:30.081Z,13.33
2018-04-23T11:19:57.542Z,16.40
2018-04-23T11:22:25.001Z,12.00
2018-04-23T11:24:53.225Z,14.10
2018-04-23T11:27:20.685Z,13.40
2018-04-23T11:29:48.944Z,12.83
2018-04-23T11:32:16.405Z,11.27
2018-04-23T11:34:43.864Z,10.93
2018-04-23T11:37:12.094Z,12.40
2018-04-23T11:39:39.557Z,12.67
2018-04-23T11:42:07.016Z,12.80
2018-04-23T11:44:34.564Z,11.37
2018-04-23T11:47:02.025Z,12.77
2018-04-23T11:49:29.494Z,12.77
2018-04-23T11:51:57.016Z,10.30
2018-04-23T11:54:24.498Z,10.23
2018-04-23T11:56:51.956Z,12.30
2018-04-23T11:59:19.456Z,12.50
2018-04-23T12:01:46.994Z,12.13
2018-04-23T12:04:15.247Z,10.33
2018-04-23T12:06:42.825Z,10.43
2018-04-23T12:09:10.297Z,12.20
2018-04-23T12:11:37.805Z,10.80
2018-04-23T12:14:05.285Z,12.73
2018-04-23T12:16:32.745Z,10.67
2018-04-23T12:19:00.205Z,13.70
2018-04-23T12:21:27.732Z,13.57
2018-04-23T12:23:55.208Z,10.90
2018-04-23T12:26:22.696Z,11.07
2018-04-23T12:28:50.176Z,11.63
2018-04-23T12:31:17.678Z,8.93
2018-04-23T12:33:45.140Z,13.03
2018-04-23T12:36:12.615Z,10.07
2018-04-23T12:38:40.082Z,13.03
2018-04-23T12:41:07.584Z,12.13
2018-04-23T12:43:35.064Z,12.83
2018-04-23T12:46:02.569Z,15.20
2018-04-23T12:48:29.997Z,11.47
2018-04-23T12:50:57.510Z,14.90
2018-04-23T12:53:24.965Z,10.80
2018-04-23T12:55:52.425Z,12.27
2018-04-23T12:58:20.652Z,14.47
2018-04-23T13:00:48.897Z,12.13
2018-04-23T13:03:16.352Z,9.07
2018-04-23T13:05:43.817Z,15.43
2018-04-23T13:08:12.040Z,15.17
2018-04-23T13:10:39.496Z,11.47
2018-04-23T13:13:07.728Z,12.27
2018-04-23T13:15:35.953Z,10.93
2018-04-23T13:18:03.419Z,11.83
2018-04-23T13:20:30.966Z,15.47
2018-04-23T13:22:59.192Z,13.13
2018-04-23T13:25:27.422Z,18.60
2018-04-23T13:27:54.934Z,19.20
2018-04-23T13:30:22.468Z,14.00
2018-04-23T13:32:50.694Z,16.93
2018-04-23T13:35:18.293Z,13.70
2018-04-23T13:37:45.753Z,20.57
2018-04-23T13:40:13.220Z,17.00
2018-04-23T13:42:41.519Z,15.33
2018-04-23T13:45:09.056Z,10.93
2018-04-23T13:47:36.562Z,12.00
2018-04-23T13:50:04.040Z,14.73
2018-04-23T13:52:31.520Z,18.23
2018-04-23T13:54:59.004Z,9.97
2018-04-23T13:57:26.465Z,13.07
2018-04-23T13:59:53.939Z,17.20
2018-04-23T14:02:21.406Z,14.63
2018-04-23T14:04:49.636Z,17.20
2018-04-23T14:07:17.097Z,14.43
2018-04-23T14:09:45.438Z,15.33
2018-04-23T14:12:12.901Z,12.57
2018-04-23T14:14:40.420Z,15.87
2018-04-23T14:17:07.909Z,16.80
2018-04-23T14:19:35.392Z,17.87
2018-04-23T14:22:02.854Z,16.73
2018-04-23T14:24:30.397Z,17.40
2018-04-23T14:26:57.856Z,14.50
2018-04-23T14:29:26.088Z,13.43
2018-04-23T14:31:54.316Z,15.43
2018-04-23T14:34:21.772Z,18.83
2018-04-23T14:36:49.236Z,20.73
2018-04-23T14:39:18.672Z,17.30
2018-04-23T14:41:46.142Z,15.60
2018-04-23T14:44:14.394Z,20.07
2018-04-23T14:46:41.922Z,17.50
2018-04-23T14:49:10.161Z,12.33
2018-04-23T14:51:37.637Z,19.63
2018-04-23T14:54:05.101Z,14.10
2018-04-23T14:56:32.672Z,15.67
2018-04-23T14:59:00.152Z,16.33
2018-04-23T15:01:28.407Z,14.20
2018-04-23T15:03:55.956Z,13.73
2018-04-23T15:06:23.469Z,18.10
2018-04-23T15:08:50.948Z,16.43
2018-04-23T15:11:18.424Z,16.10
2018-04-23T15:13:45.908Z,17.50
2018-04-23T15:16:13.370Z,13.97
2018-04-23T15:18:40.833Z,13.40
2018-04-23T15:21:09.073Z,12.53
2018-04-23T15:23:36.701Z,19.30
2018-04-23T15:26:04.632Z,17.43
2018-04-23T15:28:32.101Z,18.97
2018-04-23T15:30:59.618Z,18.80
2018-04-23T15:33:27.096Z,14.63
2018-04-23T15:35:54.602Z,14.47
2018-04-23T15:38:22.071Z,14.10
2018-04-23T15:40:49.540Z,15.87
2018-04-23T15:43:17.008Z,13.87
2018-04-23T15:45:44.480Z,17.97
2018-04-23T15:48:11.941Z,16.43
2018-04-23T15:50:40.169Z,16.00
2018-04-23T15:53:08.497Z,17.83
2018-04-23T15:55:36.046Z,16.27
2018-04-23T15:58:04.305Z,18.00
2018-04-23T16:00:31.764Z,15.97
2018-04-23T16:02:59.226Z,10.83
2018-04-23T16:05:27.446Z,7.43
2018-04-23T16:07:54.952Z,4.10
2018-04-23T16:10:22.452Z,5.43
2018-04-23T16:12:49.876Z,5.37
2018-04-23T16:15:18.101Z,5.70
2018-04-23T16:17:45.614Z,10.80
2018-04-23T16:20:13.086Z,10.90
2018-04-23T16:22:40.541Z,10.97
2018-04-23T16:25:08.000Z,13.80
2018-04-23T16:30:13.980Z,18.57
2018-04-23T16:32:41.457Z,10.17
2018-04-23T16:35:08.957Z,12.20
2018-04-23T16:37:36.422Z,13.97
2018-04-23T16:40:03.936Z,8.57
2018-04-23T16:42:31.393Z,7.60
2018-04-23T16:44:58.869Z,11.47
2018-04-23T16:47:26.335Z,6.17
2018-04-23T16:49:53.781Z,8.00
2018-04-23T16:52:21.245Z,12.80
2018-04-23T16:54:49.397Z,7.07
2018-04-23T16:57:17.616Z,7.27
2018-04-23T16:59:45.070Z,10.47
2018-04-23T17:02:13.298Z,10.20
2018-04-23T17:04:40.820Z,10.37
2018-04-23T17:07:09.079Z,8.50
2018-04-23T17:09:36.548Z,10.77
2018-04-23T17:12:04.017Z,9.30
2018-04-23T17:14:31.477Z,8.97
2018-04-23T17:16:58.933Z,7.27
2018-04-23T17:19:27.162Z,11.17
2018-04-23T17:21:54.616Z,12.07
2018-04-23T17:24:22.166Z,11.83
2018-04-23T17:26:50.388Z,15.57
2018-04-23T17:34:17.132Z,14.13
2018-04-23T17:36:44.597Z,18.17
2018-04-23T17:39:12.085Z,13.27
2018-04-23T17:41:39.581Z,15.37
2018-04-23T17:44:07.045Z,13.53
2018-04-23T17:46:34.508Z,11.77
2018-04-23T17:49:01.976Z,14.57
2018-04-23T17:51:29.436Z,13.20
2018-04-23T17:53:56.900Z,16.53
2018-04-23T17:56:24.352Z,10.47
2018-04-23T17:58:51.864Z,15.20
2018-04-23T18:01:19.293Z,11.50
2018-04-23T18:03:46.771Z,11.60
2018-04-23T18:06:14.989Z,11.93
2018-04-23T18:08:42.461Z,13.80
2018-04-23T18:11:09.977Z,12.63
2018-04-23T18:13:38.165Z,14.43
2018-04-23T18:16:05.626Z,11.80
2018-04-23T18:18:34.215Z,12.17
2018-04-23T18:21:01.685Z,14.70
2018-04-23T18:23:29.148Z,11.87
2018-04-23T18:25:56.607Z,15.43
2018-04-23T18:28:24.070Z,15.73
2018-04-23T18:30:52.324Z,16.07
2018-04-23T18:33:19.793Z,13.93
2018-04-23T18:35:47.261Z,13.87
2018-04-23T18:38:14.729Z,14.30
2018-04-23T18:40:42.240Z,14.63
2018-04-23T18:43:09.696Z,15.03
2018-04-23T18:45:37.987Z,17.40
2018-04-23T18:48:05.413Z,14.63
2018-04-23T18:50:32.932Z,14.63
2018-04-23T18:53:00.366Z,15.40
2018-04-23T18:55:27.839Z,12.20
2018-04-23T18:57:55.357Z,12.60
2018-04-23T19:00:22.820Z,12.07
2018-04-23T19:02:50.276Z,18.67
2018-04-23T19:05:17.766Z,20.90
2018-04-23T19:07:45.240Z,15.13
2018-04-23T19:10:13.467Z,13.80
2018-04-23T19:12:40.948Z,14.20
2018-04-23T19:15:09.176Z,15.83
2018-04-23T19:17:36.761Z,16.63
2018-04-23T19:20:04.243Z,18.17
2018-04-23T19:22:31.705Z,15.13
2018-04-23T19:24:59.165Z,14.80
2018-04-23T19:27:27.462Z,15.03
2018-04-23T19:29:54.868Z,15.03
2018-04-23T19:32:22.341Z,16.80
2018-04-23T19:34:49.832Z,18.80
2018-04-23T19:37:17.296Z,13.80
2018-04-23T19:39:44.786Z,14.30
2018-04-23T19:42:12.265Z,14.37
2018-04-23T19:44:39.726Z,15.27
2018-04-23T19:47:07.976Z,16.70
2018-04-23T19:49:35.448Z,13.13
2018-04-23T19:52:02.912Z,15.70
2018-04-23T19:54:31.155Z,18.03
2018-04-23T19:56:58.638Z,15.83
2018-04-23T19:59:26.116Z,12.83
2018-04-23T20:01:53.600Z,18.17
2018-04-23T20:04:21.081Z,14.40
2018-04-23T20:06:48.644Z,12.47
2018-04-23T20:09:16.144Z,11.73
2018-04-23T20:11:43.601Z,16.50
2018-04-23T20:14:11.104Z,15.67
2018-04-23T20:16:38.592Z,13.63
2018-04-23T20:19:06.083Z,13.97
2018-04-23T20:21:33.549Z,13.97
2018-04-23T20:24:01.056Z,17.30
2018-04-23T20:26:28.585Z,16.20
2018-04-23T20:28:56.110Z,18.10
2018-04-23T20:32:20.426Z,15.40
2018-04-23T20:34:47.887Z,15.97
2018-04-23T20:37:15.418Z,11.83
2018-04-23T20:39:42.877Z,13.23
2018-04-23T20:42:10.336Z,14.97
2018-04-23T20:44:37.800Z,13.37
2018-04-23T20:47:06.055Z,15.97
2018-04-23T20:49:33.521Z,14.80
2018-04-23T20:52:01.012Z,16.90
2018-04-23T20:54:28.498Z,16.97
2018-04-23T20:56:55.960Z,18.37
2018-04-23T20:59:23.571Z,15.60
2018-04-23T21:01:50.959Z,18.03
2018-04-23T21:04:18.425Z,22.77
2018-04-23T21:06:45.897Z,19.63
2018-04-23T21:09:13.356Z,17.93
2018-04-23T21:11:40.820Z,16.40
2018-04-23T21:14:09.129Z,20.67
2018-04-23T21:16:37.384Z,18.33
2018-04-23T21:19:04.845Z,17.57
2018-04-23T21:21:32.305Z,19.30
2018-04-23T21:23:59.764Z,20.60
2018-04-23T21:26:27.313Z,19.53
2018-04-23T21:28:54.774Z,24.97
2018-04-23T21:31:22.272Z,20.37
2018-04-23T21:33:49.754Z,20.90
2018-04-23T21:36:17.278Z,23.07
2018-04-23T21:38:45.537Z,18.87
2018-04-23T21:41:12.998Z,20.53
2018-04-23T21:43:40.533Z,26.67
2018-04-23T21:46:07.969Z,22.20
2018-04-23T21:48:35.457Z,23.20
2018-04-23T21:51:02.940Z,24.10
2018-04-23T21:53:30.424Z,27.07
2018-04-23T21:55:57.921Z,28.93
2018-04-23T21:58:25.432Z,26.67
2018-04-23T22:00:52.892Z,27.73
2018-04-23T22:03:20.353Z,27.30
2018-04-23T22:05:47.825Z,26.60
2018-04-23T22:08:15.335Z,25.30
2018-04-23T22:10:42.808Z,23.20
2018-04-23T22:13:10.302Z,26.80
2018-04-23T22:15:37.758Z,25.20
2018-04-23T22:18:05.266Z,25.27
2018-04-23T22:20:32.687Z,23.50
2018-04-23T22:23:00.945Z,29.63
2018-04-23T22:25:28.420Z,27.83
2018-04-23T22:27:55.896Z,29.07
2018-04-23T22:30:23.364Z,30.93
2018-04-23T22:32:50.825Z,27.97
2018-04-23T22:35:18.333Z,24.67
2018-04-23T22:37:45.793Z,31.03
2018-04-23T22:40:13.305Z,31.37
2018-04-23T22:42:40.772Z,31.07
2018-04-23T22:45:08.249Z,34.67
2018-04-23T22:47:35.761Z,33.70
2018-04-23T22:50:03.220Z,35.50
2018-04-23T22:52:30.730Z,33.43
2018-04-23T22:54:58.208Z,31.40
2018-04-23T22:57:25.693Z,26.53
2018-04-23T22:59:53.155Z,30.13
2018-04-23T23:02:20.617Z,30.20
2018-04-23T23:04:48.073Z,27.47
2018-04-23T23:07:16.336Z,30.27
2018-04-23T23:09:43.793Z,23.90
2018-04-23T23:12:11.254Z,26.53
2018-04-23T23:14:38.773Z,24.13
2018-04-23T23:17:06.234Z,27.70
2018-04-23T23:19:33.741Z,26.60
2018-04-23T23:22:01.226Z,30.70
2018-04-23T23:24:28.684Z,24.70
2018-04-23T23:26:56.141Z,25.67
2018-04-23T23:29:24.368Z,24.10
2018-04-23T23:31:51.829Z,24.80
2018-04-23T23:34:19.348Z,23.77
2018-04-23T23:36:46.816Z,25.83
2018-04-23T23:39:14.277Z,25.43
2018-04-23T23:41:41.732Z,24.00
2018-04-23T23:44:09.964Z,27.57
2018-04-23T23:46:37.470Z,29.37
2018-04-23T23:49:04.933Z,31.80
2018-04-23T23:51:32.394Z,32.53
2018-04-23T23:53:59.903Z,25.20
2018-04-23T23:56:28.104Z,20.40
2018-04-23T23:58:55.599Z,30.47
